createdAt,value
2019-05-21T00:00:59.981Z,14.26
2019-05-21T00:03:29.604Z,14.17
2019-05-21T00:05:59.256Z,14.09
2019-05-21T00:08:28.879Z,14.07
2019-05-21T00:10:58.524Z,14.01
2019-05-21T00:13:28.142Z,14.00
2019-05-21T00:15:57.795Z,13.94
2019-05-21T00:18:27.422Z,13.94
2019-05-21T00:20:57.066Z,13.92
2019-05-21T00:23:26.692Z,13.92
2019-05-21T00:25:56.457Z,13.91
2019-05-21T00:28:40.742Z,13.92
2019-05-21T00:31:46.435Z,13.91
2019-05-21T00:34:51.940Z,13.86
2019-05-21T00:37:57.332Z,13.82
2019-05-21T00:41:02.594Z,13.81
2019-05-21T00:43:47.013Z,13.74
2019-05-21T00:46:16.662Z,13.65
2019-05-21T00:48:46.298Z,13.66
2019-05-21T00:51:15.926Z,13.71
2019-05-21T00:53:45.569Z,13.72
2019-05-21T00:56:15.198Z,13.63
2019-05-21T00:58:44.924Z,13.62
2019-05-21T01:01:14.549Z,13.58
2019-05-21T01:03:44.206Z,13.51
2019-05-21T01:06:13.831Z,13.39
2019-05-21T01:08:43.500Z,13.36
2019-05-21T01:11:13.472Z,13.28
2019-05-21T01:13:43.144Z,13.25
2019-05-21T01:16:12.760Z,13.21
2019-05-21T01:18:42.692Z,13.28
2019-05-21T01:21:12.320Z,13.22
2019-05-21T01:23:41.977Z,13.18
2019-05-21T01:26:11.844Z,13.09
2019-05-21T01:28:41.596Z,13.13
2019-05-21T01:31:11.248Z,13.15
2019-05-21T01:33:41.368Z,13.15
2019-05-21T01:36:11.184Z,13.15
2019-05-21T01:38:40.809Z,13.18
2019-05-21T01:41:10.457Z,13.16
2019-05-21T01:43:40.480Z,13.16
2019-05-21T01:46:10.132Z,13.18
2019-05-21T01:48:42.742Z,13.18
2019-05-21T01:51:12.656Z,13.16
2019-05-21T01:53:42.282Z,13.15
2019-05-21T01:56:11.953Z,13.13
2019-05-21T01:58:41.580Z,13.10
2019-05-21T02:01:11.228Z,13.08
2019-05-21T02:03:40.853Z,13.06
2019-05-21T02:06:10.736Z,13.08
2019-05-21T02:08:40.418Z,13.00
2019-05-21T02:11:10.110Z,12.94
2019-05-21T02:13:39.707Z,12.86
2019-05-21T02:16:09.806Z,12.78
2019-05-21T02:18:39.444Z,12.74
2019-05-21T02:21:09.659Z,12.70
2019-05-21T02:23:39.275Z,12.71
2019-05-21T02:26:08.929Z,12.70
2019-05-21T02:28:38.551Z,12.59
2019-05-21T02:31:08.213Z,12.56
2019-05-21T02:33:37.840Z,12.57
2019-05-21T02:36:07.495Z,12.59
2019-05-21T02:38:37.124Z,12.62
2019-05-21T02:41:06.828Z,12.63
2019-05-21T02:43:36.455Z,12.65
2019-05-21T02:46:07.549Z,12.55
2019-05-21T02:48:37.202Z,12.49
2019-05-21T02:51:06.860Z,12.33
2019-05-21T02:53:36.581Z,12.15
2019-05-21T02:56:06.228Z,12.08
2019-05-21T02:58:35.849Z,12.10
2019-05-21T03:01:07.132Z,12.11
2019-05-21T03:03:36.762Z,12.14
2019-05-21T03:06:13.776Z,12.18
2019-05-21T03:08:37.856Z,12.20
2019-05-21T03:11:07.491Z,12.22
2019-05-21T03:13:37.119Z,12.29
2019-05-21T03:16:06.769Z,12.34
2019-05-21T03:18:36.393Z,12.36
2019-05-21T03:21:06.051Z,12.38
2019-05-21T03:23:35.674Z,12.33
2019-05-21T03:26:05.398Z,12.35
2019-05-21T03:28:35.125Z,12.29
2019-05-21T03:31:04.774Z,12.27
2019-05-21T03:33:34.400Z,12.33
2019-05-21T03:36:04.054Z,12.37
2019-05-21T03:38:33.686Z,12.42
2019-05-21T03:41:03.335Z,12.46
2019-05-21T03:43:32.953Z,12.48
2019-05-21T03:46:02.798Z,12.61
2019-05-21T03:48:32.413Z,12.63
2019-05-21T03:51:02.074Z,12.71
2019-05-21T03:53:31.688Z,12.83
2019-05-21T03:56:01.349Z,12.98
2019-05-21T03:58:30.974Z,13.09
2019-05-21T04:01:00.692Z,13.16
2019-05-21T04:03:30.314Z,13.24
2019-05-21T04:05:59.980Z,13.30
2019-05-21T04:08:29.593Z,13.34
2019-05-21T04:10:59.241Z,13.43
2019-05-21T04:13:28.861Z,13.51
2019-05-21T04:16:02.898Z,13.60
2019-05-21T04:18:42.925Z,13.74
2019-05-21T04:21:12.658Z,13.80
2019-05-21T04:23:42.268Z,13.92
2019-05-21T04:26:12.633Z,14.03
2019-05-21T04:28:42.656Z,14.10
2019-05-21T04:31:12.279Z,14.20
2019-05-21T04:33:41.935Z,14.33
2019-05-21T04:36:11.989Z,14.32
2019-05-21T04:38:41.659Z,14.39
2019-05-21T04:41:11.292Z,14.45
2019-05-21T04:43:41.129Z,14.56
2019-05-21T04:46:10.768Z,14.63
2019-05-21T04:48:40.525Z,14.65
2019-05-21T04:51:13.752Z,14.77
2019-05-21T04:53:41.566Z,14.81
2019-05-21T04:56:11.200Z,14.94
2019-05-21T04:58:41.253Z,15.04
2019-05-21T05:01:10.887Z,15.11
2019-05-21T05:03:40.618Z,15.23
2019-05-21T05:06:10.248Z,15.31
2019-05-21T05:08:40.017Z,15.39
2019-05-21T05:11:09.647Z,15.50
2019-05-21T05:13:41.496Z,15.54
2019-05-21T05:16:11.577Z,15.61
2019-05-21T05:18:43.981Z,15.72
2019-05-21T05:21:15.334Z,15.78
2019-05-21T05:23:53.432Z,15.94
2019-05-21T05:26:25.299Z,16.00
2019-05-21T05:28:58.293Z,16.10
2019-05-21T05:31:28.455Z,16.12
2019-05-21T05:33:58.212Z,16.18
2019-05-21T05:36:27.839Z,16.21
2019-05-21T05:38:57.689Z,16.33
2019-05-21T05:41:27.303Z,16.44
2019-05-21T05:43:56.968Z,16.51
2019-05-21T05:46:26.596Z,16.52
2019-05-21T05:49:01.469Z,16.61
2019-05-21T05:51:29.217Z,16.72
2019-05-21T05:53:58.886Z,16.76
2019-05-21T05:56:29.592Z,16.82
2019-05-21T05:58:59.579Z,16.90
2019-05-21T06:01:30.874Z,16.99
2019-05-21T06:04:00.554Z,17.12
2019-05-21T06:06:30.181Z,17.21
2019-05-21T06:08:59.879Z,17.27
2019-05-21T06:11:29.601Z,17.33
2019-05-21T06:13:59.932Z,17.39
2019-05-21T06:16:29.573Z,17.47
2019-05-21T06:18:59.665Z,17.58
2019-05-21T06:21:29.765Z,17.69
2019-05-21T06:23:59.650Z,17.79
2019-05-21T06:26:29.372Z,17.82
2019-05-21T06:28:59.032Z,17.97
2019-05-21T06:31:29.040Z,18.08
2019-05-21T06:33:58.703Z,18.16
2019-05-21T06:36:29.119Z,18.23
2019-05-21T06:38:58.781Z,18.31
2019-05-21T06:41:29.576Z,18.42
2019-05-21T06:43:59.655Z,18.47
2019-05-21T06:46:29.745Z,18.51
2019-05-21T06:49:00.823Z,18.54
2019-05-21T06:51:30.561Z,18.64
2019-05-21T06:54:00.500Z,18.69
2019-05-21T06:56:30.432Z,18.79
2019-05-21T06:59:00.067Z,18.89
2019-05-21T07:01:29.942Z,19.03
2019-05-21T07:03:59.760Z,19.10
2019-05-21T07:06:29.711Z,19.19
2019-05-21T07:08:59.330Z,19.26
2019-05-21T07:11:29.133Z,19.34
2019-05-21T07:13:58.934Z,19.45
2019-05-21T07:16:29.119Z,19.52
2019-05-21T07:18:59.169Z,19.59
2019-05-21T07:21:29.804Z,19.70
2019-05-21T07:24:00.151Z,19.73
2019-05-21T07:26:30.538Z,19.84
2019-05-21T07:29:00.539Z,19.94
2019-05-21T07:31:30.192Z,20.04
2019-05-21T07:34:02.554Z,20.18
2019-05-21T07:36:34.614Z,20.21
2019-05-21T07:39:06.455Z,20.38
2019-05-21T07:41:37.409Z,20.48
2019-05-21T07:44:07.017Z,20.62
2019-05-21T07:46:39.513Z,20.74
2019-05-21T07:49:12.243Z,20.84
2019-05-21T07:51:42.924Z,20.95
2019-05-21T07:54:12.553Z,21.09
2019-05-21T07:56:42.222Z,21.23
2019-05-21T07:59:11.847Z,21.35
2019-05-21T08:01:41.515Z,21.48
2019-05-21T08:04:11.169Z,21.62
2019-05-21T08:06:40.810Z,21.80
2019-05-21T08:09:13.798Z,21.95
2019-05-21T08:11:41.789Z,22.07
2019-05-21T08:14:11.416Z,22.18
2019-05-21T08:16:41.267Z,22.32
2019-05-21T08:19:10.874Z,22.43
2019-05-21T08:21:40.547Z,22.52
2019-05-21T08:24:10.221Z,22.59
2019-05-21T08:26:39.888Z,22.67
2019-05-21T08:29:09.537Z,22.58
2019-05-21T08:31:41.537Z,22.74
2019-05-21T08:34:11.158Z,22.86
2019-05-21T08:36:42.626Z,22.99
2019-05-21T08:39:27.355Z,23.10
2019-05-21T08:41:43.659Z,23.27
2019-05-21T08:44:13.282Z,23.40
2019-05-21T08:46:42.932Z,23.52
2019-05-21T08:49:13.990Z,23.60
2019-05-21T08:51:43.653Z,23.65
2019-05-21T08:54:13.307Z,23.72
2019-05-21T08:56:43.052Z,23.95
2019-05-21T08:59:12.674Z,24.09
2019-05-21T09:01:42.330Z,24.30
2019-05-21T09:04:11.951Z,24.39
2019-05-21T09:06:41.602Z,24.59
2019-05-21T09:09:11.236Z,24.77
2019-05-21T09:11:40.864Z,24.67
2019-05-21T09:14:10.583Z,24.72
2019-05-21T09:16:41.685Z,24.91
2019-05-21T09:19:11.403Z,25.02
2019-05-21T09:21:41.059Z,25.25
2019-05-21T09:24:10.684Z,25.36
2019-05-21T09:26:40.343Z,25.51
2019-05-21T09:29:10.077Z,25.66
2019-05-21T09:31:39.712Z,25.80
2019-05-21T09:34:09.332Z,25.95
2019-05-21T09:36:39.406Z,26.43
2019-05-21T09:39:09.096Z,26.70
2019-05-21T09:41:38.801Z,26.78
2019-05-21T09:44:08.444Z,27.04
2019-05-21T09:46:38.095Z,27.17
2019-05-21T09:49:07.817Z,27.16
2019-05-21T09:51:37.468Z,27.07
2019-05-21T09:54:07.398Z,27.41
2019-05-21T09:56:37.325Z,27.67
2019-05-21T09:59:17.516Z,27.80
2019-05-21T10:01:48.815Z,27.62
2019-05-21T10:04:18.483Z,27.81
2019-05-21T10:06:48.211Z,28.08
2019-05-21T10:09:19.645Z,27.93
2019-05-21T10:11:49.358Z,27.47
2019-05-21T10:14:19.016Z,27.42
2019-05-21T10:16:48.727Z,27.36
2019-05-21T10:19:18.375Z,27.22
2019-05-21T10:21:47.997Z,27.03
2019-05-21T10:24:17.749Z,26.82
2019-05-21T10:26:47.475Z,26.64
2019-05-21T10:29:17.255Z,26.36
2019-05-21T10:31:47.275Z,25.98
2019-05-21T10:34:16.910Z,25.81
2019-05-21T10:36:46.555Z,25.84
2019-05-21T10:39:16.246Z,25.81
2019-05-21T10:41:46.334Z,25.82
2019-05-21T10:44:17.128Z,25.67
2019-05-21T10:46:46.950Z,25.48
2019-05-21T10:49:16.567Z,25.44
2019-05-21T10:51:46.229Z,25.27
2019-05-21T10:54:15.886Z,25.11
2019-05-21T10:56:48.270Z,25.01
2019-05-21T10:59:16.909Z,24.94
2019-05-21T11:01:48.168Z,24.81
2019-05-21T11:04:22.095Z,24.74
2019-05-21T11:06:51.852Z,24.60
2019-05-21T11:09:22.771Z,24.46
2019-05-21T11:11:52.387Z,24.43
2019-05-21T11:14:22.273Z,24.23
2019-05-21T11:16:52.068Z,24.02
2019-05-21T11:19:21.783Z,23.92
2019-05-21T11:21:51.441Z,23.77
2019-05-21T11:24:21.107Z,23.73
2019-05-21T11:26:50.795Z,23.68
2019-05-21T11:29:20.497Z,23.68
2019-05-21T11:31:56.865Z,23.64
2019-05-21T11:34:21.595Z,23.59
2019-05-21T11:36:51.239Z,23.67
2019-05-21T11:39:21.019Z,23.83
2019-05-21T11:41:51.733Z,24.33
2019-05-21T11:44:21.592Z,24.61
2019-05-21T11:46:51.182Z,25.32
2019-05-21T11:49:20.834Z,25.93
2019-05-21T11:51:50.455Z,26.29
2019-05-21T11:54:20.151Z,26.53
2019-05-21T11:56:49.863Z,26.43
2019-05-21T11:59:19.513Z,26.18
2019-05-21T12:01:49.288Z,25.88
2019-05-21T12:04:19.245Z,25.65
2019-05-21T12:06:48.912Z,25.33
2019-05-21T12:09:18.513Z,24.91
2019-05-21T12:11:48.181Z,24.91
2019-05-21T12:14:17.809Z,24.89
2019-05-21T12:16:47.505Z,24.85
2019-05-21T12:19:17.230Z,24.78
2019-05-21T12:21:46.885Z,24.67
2019-05-21T12:24:16.514Z,24.62
2019-05-21T12:26:46.206Z,24.56
2019-05-21T12:29:15.928Z,24.53
2019-05-21T12:31:45.623Z,24.82
2019-05-21T12:34:15.282Z,24.68
2019-05-21T12:36:44.939Z,24.44
2019-05-21T12:39:15.120Z,23.92
2019-05-21T12:41:44.748Z,23.63
2019-05-21T12:44:14.441Z,23.35
2019-05-21T12:46:44.435Z,22.90
2019-05-21T12:49:17.107Z,22.69
2019-05-21T12:51:46.710Z,22.37
2019-05-21T12:54:16.412Z,22.11
2019-05-21T12:56:47.522Z,21.89
2019-05-21T12:59:17.134Z,21.73
2019-05-21T13:01:46.798Z,21.74
2019-05-21T13:04:16.499Z,21.79
2019-05-21T13:06:46.160Z,21.90
2019-05-21T13:09:31.327Z,22.01
2019-05-21T13:11:47.190Z,22.12
2019-05-21T13:14:18.896Z,22.19
2019-05-21T13:16:48.146Z,22.66
2019-05-21T13:19:18.372Z,23.02
2019-05-21T13:21:48.115Z,23.32
2019-05-21T13:24:17.763Z,23.55
2019-05-21T13:26:47.422Z,23.54
2019-05-21T13:29:17.072Z,23.48
2019-05-21T13:31:46.729Z,23.44
2019-05-21T13:34:16.353Z,23.39
2019-05-21T13:36:46.007Z,23.35
2019-05-21T13:39:15.701Z,23.19
2019-05-21T13:41:45.374Z,23.06
2019-05-21T13:44:14.992Z,23.34
2019-05-21T13:46:44.648Z,23.43
2019-05-21T13:49:14.278Z,23.68
2019-05-21T13:51:44.023Z,24.00
2019-05-21T13:54:13.677Z,24.14
2019-05-21T13:56:43.347Z,24.20
2019-05-21T13:59:13.011Z,24.41
2019-05-21T14:01:42.645Z,24.67
2019-05-21T14:04:12.487Z,24.73
2019-05-21T14:06:42.281Z,24.44
2019-05-21T14:09:12.119Z,24.03
2019-05-21T14:11:41.750Z,23.74
2019-05-21T14:14:11.426Z,23.53
2019-05-21T14:16:41.037Z,23.35
2019-05-21T14:19:10.724Z,23.18
2019-05-21T14:21:41.129Z,22.99
2019-05-21T14:24:11.254Z,22.89
2019-05-21T14:26:41.065Z,22.68
2019-05-21T14:29:10.716Z,22.47
2019-05-21T14:31:40.331Z,22.33
2019-05-21T14:34:10.081Z,22.16
2019-05-21T14:36:39.776Z,22.02
2019-05-21T14:39:13.769Z,22.01
2019-05-21T14:41:43.415Z,21.93
2019-05-21T14:44:13.194Z,21.79
2019-05-21T14:46:43.008Z,21.70
2019-05-21T14:49:14.163Z,21.60
2019-05-21T14:51:43.917Z,21.60
2019-05-21T14:54:25.989Z,21.63
2019-05-21T14:56:47.386Z,21.56
2019-05-21T14:59:16.243Z,21.30
2019-05-21T15:01:45.921Z,21.32
2019-05-21T15:04:15.665Z,21.27
2019-05-21T15:06:45.279Z,21.23
2019-05-21T15:09:14.944Z,21.19
2019-05-21T15:11:45.077Z,21.14
2019-05-21T15:14:16.330Z,21.17
2019-05-21T15:16:46.179Z,21.23
2019-05-21T15:19:15.826Z,21.31
2019-05-21T15:21:55.992Z,21.38
2019-05-21T15:24:25.642Z,21.59
2019-05-21T15:26:55.434Z,21.75
2019-05-21T15:29:25.213Z,21.73
2019-05-21T15:31:54.937Z,21.73
2019-05-21T15:34:24.594Z,21.79
2019-05-21T15:36:54.792Z,21.92
2019-05-21T15:39:24.447Z,22.09
2019-05-21T15:41:54.324Z,22.16
2019-05-21T15:44:24.073Z,22.03
2019-05-21T15:46:53.697Z,21.88
2019-05-21T15:49:35.580Z,21.81
2019-05-21T15:51:54.807Z,21.78
2019-05-21T15:54:24.469Z,21.73
2019-05-21T15:56:54.088Z,21.65
2019-05-21T15:59:23.739Z,21.58
2019-05-21T16:01:53.363Z,21.57
2019-05-21T16:04:23.028Z,21.55
2019-05-21T16:06:52.651Z,21.57
2019-05-21T16:09:22.300Z,21.57
2019-05-21T16:11:51.951Z,21.57
2019-05-21T16:14:21.619Z,21.45
2019-05-21T16:16:51.231Z,21.50
2019-05-21T16:19:20.879Z,21.47
2019-05-21T16:21:50.490Z,21.49
2019-05-21T16:24:20.141Z,21.38
2019-05-21T16:26:49.788Z,21.33
2019-05-21T16:29:19.435Z,21.29
2019-05-21T16:31:49.055Z,21.28
2019-05-21T16:34:18.781Z,21.25
2019-05-21T16:36:48.455Z,21.24
2019-05-21T16:39:19.772Z,21.23
2019-05-21T16:41:49.427Z,21.19
2019-05-21T16:44:19.063Z,21.19
2019-05-21T16:46:48.784Z,21.17
2019-05-21T16:49:18.429Z,21.16
2019-05-21T16:51:48.060Z,21.12
2019-05-21T16:54:17.675Z,21.17
2019-05-21T16:56:47.314Z,21.17
2019-05-21T16:59:16.942Z,21.12
2019-05-21T17:01:46.614Z,21.15
2019-05-21T17:04:16.227Z,21.14
2019-05-21T17:06:45.890Z,21.09
2019-05-21T17:09:15.489Z,21.06
2019-05-21T17:11:59.045Z,20.99
2019-05-21T17:14:16.475Z,20.94
2019-05-21T17:16:46.120Z,20.94
2019-05-21T17:19:15.736Z,20.90
2019-05-21T17:21:45.498Z,20.86
2019-05-21T17:24:15.112Z,20.79
2019-05-21T17:26:44.856Z,20.72
2019-05-21T17:29:14.488Z,20.66
2019-05-21T17:31:44.200Z,20.58
2019-05-21T17:34:13.842Z,20.50
2019-05-21T17:36:43.505Z,20.46
2019-05-21T17:39:13.158Z,20.39
2019-05-21T17:41:42.803Z,20.34
2019-05-21T17:44:12.428Z,20.30
2019-05-21T17:46:42.077Z,20.24
2019-05-21T17:49:11.755Z,20.16
2019-05-21T17:51:41.412Z,20.08
2019-05-21T17:54:11.036Z,20.05
2019-05-21T17:56:40.783Z,19.96
2019-05-21T17:59:10.400Z,19.91
2019-05-21T18:01:40.048Z,19.80
2019-05-21T18:04:10.250Z,19.79
2019-05-21T18:06:40.807Z,19.74
2019-05-21T18:09:12.637Z,19.74
2019-05-21T18:11:42.429Z,19.75
2019-05-21T18:14:12.392Z,19.74
2019-05-21T18:16:42.392Z,19.74
2019-05-21T18:19:12.487Z,19.75
2019-05-21T18:21:42.762Z,19.78
2019-05-21T18:24:12.820Z,19.79
2019-05-21T18:26:42.481Z,19.81
2019-05-21T18:29:12.101Z,19.73
2019-05-21T18:31:41.782Z,19.55
2019-05-21T18:34:11.414Z,19.52
2019-05-21T18:36:41.145Z,19.49
2019-05-21T18:39:10.883Z,19.48
2019-05-21T18:41:40.542Z,19.44
2019-05-21T18:44:10.274Z,19.43
2019-05-21T18:46:39.927Z,19.26
2019-05-21T18:49:09.563Z,18.84
2019-05-21T18:51:39.261Z,18.57
2019-05-21T18:54:08.894Z,18.14
2019-05-21T18:56:38.545Z,17.90
2019-05-21T18:59:08.198Z,17.74
2019-05-21T19:01:38.586Z,17.70
2019-05-21T19:04:08.311Z,17.68
2019-05-21T19:06:37.929Z,17.63
2019-05-21T19:09:08.212Z,17.59
2019-05-21T19:11:37.836Z,17.49
2019-05-21T19:14:07.645Z,17.50
2019-05-21T19:16:37.262Z,17.46
2019-05-21T19:19:06.981Z,17.42
2019-05-21T19:21:36.681Z,17.34
2019-05-21T19:24:06.320Z,17.28
2019-05-21T19:26:35.946Z,17.21
2019-05-21T19:29:07.747Z,17.20
2019-05-21T19:31:37.150Z,17.20
2019-05-21T19:34:07.067Z,17.26
2019-05-21T19:36:36.708Z,17.30
2019-05-21T19:39:07.959Z,17.30
2019-05-21T19:41:37.572Z,17.30
2019-05-21T19:44:07.288Z,17.33
2019-05-21T19:46:37.008Z,17.30
2019-05-21T19:49:06.669Z,17.30
2019-05-21T19:51:36.391Z,17.27
2019-05-21T19:54:06.037Z,17.28
2019-05-21T19:56:36.698Z,17.34
2019-05-21T19:59:06.364Z,17.35
2019-05-21T20:01:36.145Z,17.37
2019-05-21T20:04:06.809Z,17.37
2019-05-21T20:06:36.495Z,17.39
2019-05-21T20:09:08.667Z,17.38
2019-05-21T20:11:38.507Z,17.40
2019-05-21T20:14:08.112Z,17.37
2019-05-21T20:16:38.121Z,17.38
2019-05-21T20:19:09.662Z,17.37
2019-05-21T20:21:39.495Z,17.38
2019-05-21T20:24:09.599Z,17.42
2019-05-21T20:26:39.416Z,17.47
2019-05-21T20:29:09.396Z,17.50
2019-05-21T20:31:40.608Z,17.46
2019-05-21T20:34:11.722Z,17.41
2019-05-21T20:36:41.569Z,17.39
2019-05-21T20:39:12.966Z,17.35
2019-05-21T20:41:43.457Z,17.29
2019-05-21T20:44:14.917Z,17.31
2019-05-21T20:46:45.516Z,17.32
2019-05-21T20:49:15.340Z,17.31
2019-05-21T20:51:45.029Z,17.24
2019-05-21T20:54:15.659Z,17.29
2019-05-21T20:56:45.292Z,17.27
2019-05-21T20:59:14.944Z,17.24
2019-05-21T21:01:44.999Z,17.26
2019-05-21T21:04:14.729Z,17.25
2019-05-21T21:06:44.410Z,17.28
2019-05-21T21:09:14.404Z,17.31
2019-05-21T21:11:44.459Z,17.31
2019-05-21T21:14:18.287Z,17.34
2019-05-21T21:16:47.603Z,17.38
2019-05-21T21:19:17.488Z,17.35
2019-05-21T21:21:47.123Z,17.37
2019-05-21T21:24:17.332Z,17.34
2019-05-21T21:26:46.996Z,17.30
2019-05-21T21:29:16.646Z,17.29
2019-05-21T21:31:46.640Z,17.25
2019-05-21T21:34:16.533Z,17.29
2019-05-21T21:36:46.229Z,17.27
2019-05-21T21:39:16.427Z,17.26
2019-05-21T21:41:47.342Z,17.20
2019-05-21T21:44:32.695Z,17.17
2019-05-21T21:46:49.531Z,17.15
2019-05-21T21:49:20.081Z,17.14
2019-05-21T21:51:50.196Z,17.09
2019-05-21T21:54:20.699Z,17.11
2019-05-21T21:56:50.581Z,17.11
2019-05-21T21:59:20.202Z,17.00
2019-05-21T22:02:01.513Z,16.97
2019-05-21T22:04:32.782Z,16.91
2019-05-21T22:07:03.271Z,16.88
2019-05-21T22:09:33.644Z,16.88
2019-05-21T22:12:05.299Z,16.87
2019-05-21T22:14:49.726Z,16.89
2019-05-21T22:17:08.923Z,16.89
2019-05-21T22:19:39.643Z,16.92
2019-05-21T22:22:10.541Z,16.94
2019-05-21T22:24:40.338Z,16.97
2019-05-21T22:27:10.310Z,17.00
2019-05-21T22:29:40.185Z,17.01
2019-05-21T22:32:10.010Z,17.02
2019-05-21T22:34:39.630Z,17.06
2019-05-21T22:37:11.124Z,17.09
2019-05-21T22:39:42.461Z,17.13
2019-05-21T22:42:13.084Z,17.13
2019-05-21T22:44:42.933Z,17.13
2019-05-21T22:47:12.826Z,17.09
2019-05-21T22:49:42.633Z,17.09
2019-05-21T22:52:12.772Z,17.09
2019-05-21T22:54:42.392Z,17.04
2019-05-21T22:57:12.113Z,16.99
2019-05-21T22:59:41.742Z,16.92
2019-05-21T23:02:13.197Z,16.87
2019-05-21T23:04:42.988Z,16.80
2019-05-21T23:07:12.741Z,16.74
2019-05-21T23:09:42.470Z,16.69
2019-05-21T23:12:12.323Z,16.63
2019-05-21T23:14:42.083Z,16.61
2019-05-21T23:17:11.906Z,16.63
2019-05-21T23:19:41.910Z,16.63
2019-05-21T23:22:16.044Z,16.58
2019-05-21T23:24:48.077Z,16.54
2019-05-21T23:27:19.457Z,16.49
2019-05-21T23:29:49.760Z,16.47
2019-05-21T23:32:19.552Z,16.44
2019-05-21T23:34:49.410Z,16.37
2019-05-21T23:37:20.966Z,16.33
2019-05-21T23:39:53.069Z,16.32
2019-05-21T23:42:29.577Z,16.29
2019-05-21T23:44:54.468Z,16.31
2019-05-21T23:47:24.395Z,16.29
2019-05-21T23:49:54.187Z,16.26
2019-05-21T23:52:25.272Z,16.24
2019-05-21T23:54:54.909Z,16.26
2019-05-21T23:57:26.187Z,16.26
2019-05-21T23:59:56.085Z,16.24
